Time;durP1;ratioP1;P1;durP2;ratioP2;P2;SDS_P1;SDS_P2;PMS_P1;PMS_P2;Temp;Humidity;BMP_temperature;BMP_pressure;BME280_temperature;BME280_humidity;BME280_pressure;Samples;Min_cycle;Max_cycle;Signal;HPM_P1;HPM_P2
2022/06/02 00:01:53;;;;;;;3.53;1.38;;;20.30;78.00;;;;;;5085668;28;20187;-73
2022/06/02 00:04:57;;;;;;;1.50;1.38;;;20.30;78.90;;;;;;5025982;28;20307;-73
2022/06/02 00:07:32;;;;;;;1.48;1.38;;;20.20;78.90;;;;;;5022647;28;20252;-73
2022/06/02 00:10:04;;;;;;;1.55;1.50;;;20.20;78.30;;;;;;5043048;28;20371;-73
2022/06/02 00:12:52;;;;;;;2.45;1.63;;;20.10;79.00;;;;;;5024955;28;20192;-73
2022/06/02 00:15:23;;;;;;;1.73;1.63;;;20.10;79.00;;;;;;5014928;28;20759;-73
2022/06/02 00:18:04;;;;;;;3.58;2.05;;;20.10;79.70;;;;;;5010993;28;20224;-73
2022/06/02 00:20:39;;;;;;;2.72;1.92;;;20.10;79.50;;;;;;5031057;28;20196;-74
2022/06/02 00:23:24;;;;;;;1.75;1.67;;;20.10;80.20;;;;;;5026370;28;20211;-73
2022/06/02 00:25:55;;;;;;;1.55;1.50;;;20.00;80.50;;;;;;5025916;28;20637;-73
2022/06/02 00:28:45;;;;;;;2.25;1.58;;;20.00;80.10;;;;;;5023708;28;20586;-73
2022/06/02 00:31:37;;;;;;;2.03;1.65;;;20.00;79.10;;;;;;5031005;28;20278;-73
2022/06/02 00:34:10;;;;;;;1.50;1.40;;;19.90;79.90;;;;;;5024260;28;20198;-73
2022/06/02 00:36:40;;;;;;;5.25;1.67;;;19.90;79.60;;;;;;5026841;28;20196;-73
2022/06/02 00:39:08;;;;;;;1.48;1.48;;;19.90;79.60;;;;;;5025606;28;20183;-74
2022/06/02 00:41:58;;;;;;;2.22;1.27;;;19.80;79.70;;;;;;5068597;28;21445;-74
2022/06/02 00:44:53;;;;;;;1.10;1.10;;;19.80;80.00;;;;;;5068253;28;20626;-73
2022/06/02 00:47:51;;;;;;;2.67;1.67;;;19.80;80.60;;;;;;5066242;28;20826;-73
2022/06/02 00:50:33;;;;;;;1.88;1.60;;;19.80;81.40;;;;;;5071392;28;20262;-73
2022/06/02 00:53:17;;;;;;;3.05;1.88;;;19.70;83.40;;;;;;5065676;28;20184;-73
2022/06/02 00:59:28;;;;;;;3.42;1.48;;;19.70;82.10;;;;;;5065075;28;20220;-73
2022/06/02 01:01:55;;;;;;;4.40;1.48;;;19.60;82.80;;;;;;5068950;28;20186;-73
2022/06/02 01:04:21;;;;;;;1.25;1.20;;;19.60;82.60;;;;;;5090413;28;20210;-73
2022/06/02 01:07:09;;;;;;;2.20;1.83;;;19.50;82.40;;;;;;5069992;28;20680;-73
2022/06/02 01:10:03;;;;;;;1.38;1.23;;;19.50;82.40;;;;;;5069562;28;20195;-73
2022/06/02 01:12:56;;;;;;;1.35;1.35;;;19.40;81.50;;;;;;5075069;28;20186;-72
2022/06/02 01:15:39;;;;;;;3.50;1.55;;;19.40;81.30;;;;;;5071364;28;20202;-73
2022/06/02 01:18:14;;;;;;;1.67;1.52;;;19.40;82.00;;;;;;5075444;28;20190;-73
2022/06/02 01:21:09;;;;;;;1.67;1.55;;;19.30;81.90;;;;;;5072348;28;20563;-72
2022/06/02 01:23:38;;;;;;;4.60;1.90;;;19.30;81.20;;;;;;5069297;28;20191;-73
2022/06/02 01:26:43;;;;;;;1.52;1.42;;;19.30;82.60;;;;;;5097832;28;20208;-73
2022/06/02 01:29:29;;;;;;;1.75;1.65;;;19.30;81.90;;;;;;5070592;28;20260;-73
2022/06/02 01:32:17;;;;;;;1.40;1.10;;;19.20;81.90;;;;;;5074577;28;20604;-73
2022/06/02 01:34:55;;;;;;;4.53;1.38;;;19.20;81.60;;;;;;5074523;28;20579;-74
2022/06/02 01:37:36;;;;;;;2.03;1.88;;;19.20;81.40;;;;;;5074945;28;20270;-73
2022/06/02 01:40:16;;;;;;;1.60;1.60;;;19.20;82.50;;;;;;5070712;28;20618;-73
2022/06/02 01:42:57;;;;;;;1.77;1.67;;;19.20;82.70;;;;;;5075989;28;20271;-73
2022/06/02 01:45:59;;;;;;;2.45;1.70;;;19.20;83.10;;;;;;5072837;28;20222;-73
2022/06/02 01:48:31;;;;;;;1.48;1.38;;;19.10;82.30;;;;;;5058204;28;20807;-74
2022/06/02 01:51:08;;;;;;;1.40;1.33;;;19.10;82.60;;;;;;5069273;28;20185;-74
2022/06/02 01:53:55;;;;;;;2.88;1.85;;;19.10;82.50;;;;;;5068350;28;20183;-74
2022/06/02 01:56:49;;;;;;;1.15;1.15;;;19.00;82.20;;;;;;5076484;28;20182;-74
2022/06/02 01:59:39;;;;;;;1.30;1.30;;;19.00;83.20;;;;;;5068790;28;20270;-74
2022/06/02 02:02:25;;;;;;;1.02;1.02;;;19.00;84.00;;;;;;5071526;28;20179;-74
2022/06/02 02:05:19;;;;;;;1.50;1.40;;;18.90;83.30;;;;;;5067803;28;20211;-74
2022/06/02 02:07:57;;;;;;;1.77;1.75;;;18.90;83.50;;;;;;5092729;28;20178;-74
2022/06/02 02:10:56;;;;;;;1.95;1.85;;;18.80;83.10;;;;;;5089319;28;20191;-74
2022/06/02 02:13:55;;;;;;;2.30;1.58;;;18.80;83.40;;;;;;5069680;28;20252;-74
2022/06/02 02:16:26;;;;;;;1.92;1.85;;;18.80;83.90;;;;;;5073652;28;20251;-74
2022/06/02 02:19:17;;;;;;;1.88;1.80;;;18.70;84.00;;;;;;5068023;28;20189;-74
2022/06/02 02:22:04;;;;;;;3.83;1.88;;;18.70;83.90;;;;;;5066001;28;20189;-74
2022/06/02 02:24:51;;;;;;;1.98;1.98;;;18.70;83.80;;;;;;5065443;28;20350;-74
2022/06/02 02:28:04;;;;;;;1.65;1.65;;;18.60;83.70;;;;;;5069361;28;20198;-74
2022/06/02 02:31:03;;;;;;;1.63;1.55;;;18.60;83.50;;;;;;5072200;28;20583;-74
2022/06/02 02:33:48;;;;;;;1.40;1.25;;;18.50;83.90;;;;;;5068042;28;20266;-73
2022/06/02 02:36:41;;;;;;;1.27;1.20;;;18.50;83.70;;;;;;5073547;28;20187;-74
2022/06/02 02:39:16;;;;;;;2.88;1.58;;;18.50;84.00;;;;;;5072803;28;20187;-74
2022/06/02 02:41:57;;;;;;;2.15;1.77;;;18.40;83.90;;;;;;5070342;28;20186;-74
2022/06/02 02:44:31;;;;;;;2.45;1.70;;;18.40;84.30;;;;;;5068651;28;20217;-74
2022/06/02 02:47:22;;;;;;;1.70;1.60;;;18.40;84.10;;;;;;5087788;28;20183;-74
2022/06/02 02:49:59;;;;;;;1.88;1.77;;;18.40;83.50;;;;;;5078569;28;20182;-73
2022/06/02 02:52:52;;;;;;;3.25;2.17;;;18.30;83.90;;;;;;5071974;28;20187;-74
2022/06/02 02:55:32;;;;;;;3.05;2.00;;;18.30;83.40;;;;;;5066167;28;20182;-74
2022/06/02 02:58:22;;;;;;;1.33;1.23;;;18.20;83.60;;;;;;5072260;28;20670;-74
2022/06/02 03:01:02;;;;;;;1.95;1.85;;;18.20;83.90;;;;;;5068250;28;20208;-74
2022/06/02 03:03:49;;;;;;;2.85;1.77;;;18.20;84.00;;;;;;5073004;28;20240;-74
2022/06/02 03:06:21;;;;;;;1.85;1.75;;;18.20;84.30;;;;;;5095389;28;20191;-74
2022/06/02 03:08:58;;;;;;;2.70;1.80;;;18.20;85.00;;;;;;5068351;28;20183;-74
2022/06/02 03:11:41;;;;;;;2.42;2.20;;;18.20;85.60;;;;;;5068010;28;20170;-73
2022/06/02 03:14:28;;;;;;;2.05;1.95;;;18.10;84.50;;;;;;5070964;28;20243;-74
2022/06/02 03:17:15;;;;;;;3.72;1.80;;;18.10;84.00;;;;;;5067161;28;20259;-74
2022/06/02 03:19:50;;;;;;;1.33;1.27;;;18.10;84.50;;;;;;5070412;28;20182;-74
2022/06/02 03:22:16;;;;;;;1.58;1.58;;;18.10;84.20;;;;;;5073405;28;20182;-73
2022/06/02 03:24:52;;;;;;;1.20;1.20;;;18.10;86.00;;;;;;5070971;28;20778;-74
2022/06/02 03:27:26;;;;;;;1.52;1.52;;;18.10;85.40;;;;;;5070916;28;20182;-74
2022/06/02 03:30:09;;;;;;;4.20;1.52;;;18.10;86.10;;;;;;5059278;28;20178;-74
2022/06/02 03:32:52;;;;;;;2.10;1.48;;;18.10;85.70;;;;;;5072283;28;20741;-74
2022/06/02 03:35:28;;;;;;;1.98;1.88;;;18.10;87.20;;;;;;5089175;28;20197;-73
2022/06/02 03:37:53;;;;;;;1.75;1.73;;;18.00;86.20;;;;;;5073502;28;20672;-73
2022/06/02 03:40:29;;;;;;;2.75;1.75;;;18.00;87.50;;;;;;5074143;28;20186;-73
2022/06/02 03:42:57;;;;;;;2.45;1.90;;;18.00;86.50;;;;;;5062958;28;20182;-73
2022/06/02 03:45:23;;;;;;;3.50;1.77;;;18.00;87.80;;;;;;5065972;28;20221;-73
2022/06/02 03:48:12;;;;;;;2.20;1.98;;;17.90;87.10;;;;;;5066142;28;20187;-73
2022/06/02 03:51:01;;;;;;;1.38;1.38;;;18.00;86.20;;;;;;5067854;28;20652;-73
2022/06/02 03:53:53;;;;;;;2.15;1.77;;;18.00;86.20;;;;;;5072442;28;20668;-73
2022/06/02 03:56:28;;;;;;;2.53;2.40;;;17.90;86.40;;;;;;5070575;28;20211;-72
2022/06/02 03:59:22;;;;;;;2.80;1.75;;;18.00;87.60;;;;;;5072470;28;20173;-72
2022/06/02 04:02:09;;;;;;;2.15;2.05;;;18.00;86.60;;;;;;5070857;28;20187;-73
2022/06/02 04:04:40;;;;;;;2.22;2.10;;;18.00;87.00;;;;;;5068477;28;20210;-73
2022/06/02 04:07:12;;;;;;;4.20;1.83;;;18.00;86.90;;;;;;5068315;28;20589;-74
2022/06/02 04:10:07;;;;;;;2.13;2.03;;;18.00;86.80;;;;;;5070486;28;20605;-73
2022/06/02 04:15:42;;;;;;;2.78;1.58;;;17.90;87.00;;;;;;5067090;28;20696;-74
2022/06/02 04:18:20;;;;;;;2.33;2.13;;;17.90;88.20;;;;;;5069504;28;20223;-75
2022/06/02 04:20:54;;;;;;;1.27;1.27;;;17.90;86.40;;;;;;5065978;28;20288;-75
2022/06/02 04:23:48;;;;;;;5.07;1.70;;;18.00;86.20;;;;;;5063294;28;20262;-75
2022/06/02 04:26:41;;;;;;;3.22;2.10;;;18.10;86.30;;;;;;5068084;28;20238;-75
2022/06/02 04:29:40;;;;;;;1.73;1.73;;;18.10;85.80;;;;;;5054485;28;20183;-75
2022/06/02 04:32:20;;;;;;;2.45;1.83;;;18.20;85.80;;;;;;5063131;28;20202;-75
2022/06/02 04:34:56;;;;;;;6.78;2.45;;;18.20;85.60;;;;;;5062380;28;20262;-76
2022/06/02 04:37:32;;;;;;;2.40;1.85;;;18.30;85.20;;;;;;5063601;28;20182;-75
2022/06/02 04:40:44;;;;;;;2.28;2.17;;;18.30;87.00;;;;;;5085813;28;20225;-75
2022/06/02 04:43:47;;;;;;;2.10;2.00;;;18.40;86.40;;;;;;5067333;28;20879;-75
2022/06/02 04:46:36;;;;;;;1.80;1.77;;;18.40;86.90;;;;;;5067973;28;20655;-75
2022/06/02 04:49:42;;;;;;;1.70;1.70;;;18.50;87.10;;;;;;5070802;28;20179;-74
2022/06/02 04:52:17;;;;;;;1.85;1.75;;;18.60;86.20;;;;;;5070026;28;20838;-74
2022/06/02 04:55:20;;;;;;;2.25;2.05;;;18.60;86.80;;;;;;5074012;28;20244;-75
2022/06/02 04:58:14;;;;;;;2.60;2.40;;;18.60;87.30;;;;;;5070985;28;20253;-75
2022/06/02 05:01:09;;;;;;;3.90;2.17;;;18.60;88.20;;;;;;5072564;28;20566;-74
2022/06/02 05:03:37;;;;;;;3.50;2.67;;;18.70;87.70;;;;;;5074934;28;20209;-75
2022/06/02 05:06:44;;;;;;;2.60;2.45;;;18.70;87.50;;;;;;5059499;28;20286;-76
2022/06/02 05:09:22;;;;;;;2.45;2.35;;;18.80;87.10;;;;;;5066761;28;20308;-77
2022/06/02 05:11:52;;;;;;;4.22;2.95;;;18.90;87.00;;;;;;5065233;28;20185;-75
2022/06/02 05:14:56;;;;;;;2.97;2.75;;;18.90;88.80;;;;;;5070865;28;20917;-75
2022/06/02 05:18:01;;;;;;;2.45;2.38;;;18.90;86.70;;;;;;5047056;28;20206;-76
2022/06/02 05:20:43;;;;;;;7.90;2.08;;;19.00;86.60;;;;;;5042981;28;20275;-75
2022/06/02 05:23:26;;;;;;;4.47;2.80;;;19.00;86.30;;;;;;5048203;28;20249;-74
2022/06/02 05:26:13;;;;;;;2.60;2.53;;;19.10;87.20;;;;;;5049438;28;20223;-75
2022/06/02 05:29:03;;;;;;;3.13;2.40;;;19.20;86.70;;;;;;5049643;28;20191;-76
2022/06/02 05:31:40;;;;;;;2.05;1.95;;;19.20;86.20;;;;;;5048852;28;20210;-75
2022/06/02 05:34:47;;;;;;;2.25;2.15;;;19.30;85.60;;;;;;5051788;28;20230;-75
2022/06/02 05:37:18;;;;;;;2.35;2.22;;;19.40;85.80;;;;;;4979991;28;20201;-73
2022/06/02 05:40:04;;;;;;;2.40;2.10;;;19.40;85.70;;;;;;4977462;28;20253;-75
2022/06/02 05:42:33;;;;;;;2.55;2.25;;;19.50;85.60;;;;;;4932117;28;21153;-74
2022/06/02 05:45:16;;;;;;;2.83;2.15;;;19.50;85.60;;;;;;4953905;28;20898;-75
2022/06/02 05:47:52;;;;;;;2.53;2.42;;;19.60;84.90;;;;;;4961080;28;20194;-73
2022/06/02 05:50:30;;;;;;;2.45;2.35;;;19.60;85.20;;;;;;4956448;28;20190;-75
2022/06/02 05:53:21;;;;;;;2.13;2.05;;;19.70;85.00;;;;;;4957087;28;20714;-75
2022/06/02 05:56:08;;;;;;;2.75;2.22;;;19.80;85.00;;;;;;5012348;28;20818;-72
2022/06/02 05:58:55;;;;;;;4.03;2.80;;;19.90;85.10;;;;;;5009164;28;20246;-73
2022/06/02 06:01:43;;;;;;;2.70;2.60;;;19.90;84.40;;;;;;5014031;28;20258;-74
2022/06/02 06:04:42;;;;;;;2.35;2.25;;;20.00;84.60;;;;;;5026620;28;20972;-73
2022/06/02 06:07:12;;;;;;;2.47;2.28;;;20.00;84.60;;;;;;5007751;28;20228;-73
2022/06/02 06:10:11;;;;;;;2.50;2.40;;;20.10;85.30;;;;;;5006755;28;20692;-72
2022/06/02 06:12:45;;;;;;;2.63;2.53;;;20.20;84.60;;;;;;5011329;28;20287;-75
2022/06/02 06:15:40;;;;;;;2.80;2.67;;;20.30;84.80;;;;;;5074267;28;20214;-74
2022/06/02 06:18:47;;;;;;;3.30;3.00;;;20.30;84.80;;;;;;5074838;28;20194;-74
2022/06/02 06:21:50;;;;;;;3.83;2.80;;;20.40;85.10;;;;;;5027769;28;20184;-74
2022/06/02 06:24:53;;;;;;;2.72;2.63;;;20.50;84.20;;;;;;5032983;28;20237;-73
2022/06/02 06:27:25;;;;;;;3.40;2.70;;;20.60;84.50;;;;;;5028114;28;20218;-74
2022/06/02 06:30:10;;;;;;;3.60;3.30;;;20.60;84.30;;;;;;5027351;28;20279;-74
2022/06/02 06:32:52;;;;;;;2.72;2.63;;;20.70;83.40;;;;;;5026307;28;20184;-73
2022/06/02 06:35:35;;;;;;;2.10;2.00;;;20.70;83.60;;;;;;5027403;28;20200;-74
2022/06/02 06:38:13;;;;;;;2.17;2.08;;;20.80;83.30;;;;;;5024301;28;20233;-74
2022/06/02 06:41:08;;;;;;;4.88;2.30;;;20.90;83.20;;;;;;5025872;28;20188;-74
2022/06/02 06:43:48;;;;;;;2.83;2.60;;;20.90;83.20;;;;;;5028381;28;20204;-74
2022/06/02 06:46:23;;;;;;;2.78;2.58;;;21.00;83.70;;;;;;5023833;28;20627;-74
2022/06/02 06:48:51;;;;;;;3.00;2.80;;;21.10;83.60;;;;;;5024485;28;20288;-74
2022/06/02 06:52:07;;;;;;;2.30;2.20;;;21.20;83.60;;;;;;5005726;28;20248;-74
2022/06/02 06:54:44;;;;;;;2.92;2.63;;;21.20;84.00;;;;;;4977348;28;20202;-73
2022/06/02 06:57:21;;;;;;;2.70;2.60;;;21.30;83.40;;;;;;5011183;28;20220;-73
2022/06/02 07:00:06;;;;;;;5.30;2.83;;;21.40;83.10;;;;;;5009116;28;20188;-73
2022/06/02 07:02:52;;;;;;;2.17;2.05;;;21.50;82.30;;;;;;5012408;28;20589;-73
2022/06/02 07:05:36;;;;;;;2.50;2.40;;;21.50;82.50;;;;;;5011933;28;20849;-74
2022/06/02 07:08:24;;;;;;;3.08;2.85;;;21.60;82.30;;;;;;5012536;28;20323;-74
2022/06/02 07:11:03;;;;;;;2.35;2.25;;;21.70;82.00;;;;;;5012636;28;20242;-74
2022/06/02 07:13:30;;;;;;;2.97;2.78;;;21.70;82.00;;;;;;5013006;28;20208;-74
2022/06/02 07:16:03;;;;;;;2.65;2.53;;;21.80;82.40;;;;;;5012543;28;20213;-74
2022/06/02 07:18:41;;;;;;;3.75;2.92;;;21.90;81.80;;;;;;5015898;28;20231;-74
2022/06/02 07:21:28;;;;;;;2.60;1.92;;;21.90;81.40;;;;;;5016746;28;20281;-74
2022/06/02 07:24:21;;;;;;;8.18;2.97;;;22.00;81.50;;;;;;5012076;28;20253;-73
2022/06/02 07:26:49;;;;;;;4.28;2.40;;;22.10;81.00;;;;;;5012514;28;20614;-73
2022/06/02 07:29:23;;;;;;;2.50;2.50;;;22.20;81.00;;;;;;5008715;28;20227;-73
2022/06/02 07:32:30;;;;;;;2.47;2.20;;;22.20;80.20;;;;;;5064249;28;20194;-73
2022/06/02 07:35:04;;;;;;;2.17;2.08;;;22.30;79.70;;;;;;5014348;28;20255;-74
2022/06/02 07:37:57;;;;;;;2.50;2.38;;;22.30;79.40;;;;;;5015627;28;20253;-74
2022/06/02 07:40:47;;;;;;;2.17;2.08;;;22.30;78.00;;;;;;5014612;28;20664;-74
2022/06/02 07:43:31;;;;;;;2.28;2.17;;;22.40;78.10;;;;;;5012242;28;20274;-74
2022/06/02 07:46:10;;;;;;;1.70;1.70;;;22.50;78.60;;;;;;5016526;28;20227;-74
2022/06/02 07:48:36;;;;;;;2.75;2.25;;;22.50;78.70;;;;;;5016611;28;20195;-74
2022/06/02 07:51:01;;;;;;;4.30;2.05;;;22.60;78.70;;;;;;5016918;28;20188;-74
2022/06/02 07:53:51;;;;;;;2.05;1.95;;;22.70;79.00;;;;;;5014033;28;20208;-74
2022/06/02 07:56:25;;;;;;;3.75;2.42;;;22.80;78.70;;;;;;5013943;28;20308;-74
2022/06/02 07:59:18;;;;;;;4.35;2.88;;;22.90;77.90;;;;;;5014493;28;20244;-74
2022/06/02 08:02:11;;;;;;;2.55;2.50;;;23.00;78.40;;;;;;5012636;28;20202;-74
2022/06/02 08:04:44;;;;;;;2.80;2.47;;;23.10;78.00;;;;;;5014470;28;20257;-74
2022/06/02 08:07:40;;;;;;;2.45;2.25;;;23.20;77.30;;;;;;5015120;28;20196;-73
2022/06/02 08:10:43;;;;;;;2.53;2.40;;;23.30;77.70;;;;;;5013754;28;20189;-74
2022/06/02 08:13:24;;;;;;;3.70;2.33;;;23.40;78.10;;;;;;5070743;28;20185;-74
2022/06/02 08:15:57;;;;;;;2.92;1.83;;;23.50;77.90;;;;;;5068542;28;20201;-74
2022/06/02 08:19:07;;;;;;;2.35;2.15;;;23.60;77.60;;;;;;5067279;28;20183;-73
2022/06/02 08:21:33;;;;;;;1.65;1.65;;;23.70;78.00;;;;;;5028488;28;20200;-74
2022/06/02 08:24:11;;;;;;;1.88;1.77;;;23.80;77.10;;;;;;5031431;28;21380;-73
2022/06/02 08:27:00;;;;;;;1.85;1.85;;;23.90;76.80;;;;;;5027736;28;20215;-73
2022/06/02 08:29:47;;;;;;;3.85;2.20;;;24.00;76.80;;;;;;5030511;28;20359;-74
2022/06/02 08:32:35;;;;;;;2.28;2.17;;;24.00;75.40;;;;;;5026772;28;20864;-73
2022/06/02 08:35:13;;;;;;;1.83;1.83;;;24.10;74.70;;;;;;5024116;28;20188;-73
2022/06/02 08:37:51;;;;;;;2.20;2.10;;;24.20;75.70;;;;;;5028194;28;20202;-73
2022/06/02 08:40:41;;;;;;;2.38;2.28;;;24.30;75.60;;;;;;5041190;28;20693;-73
2022/06/02 08:43:41;;;;;;;1.90;1.90;;;24.40;76.00;;;;;;5030098;28;20191;-73
2022/06/02 08:46:15;;;;;;;2.67;1.75;;;24.50;75.10;;;;;;5030154;28;20220;-74
2022/06/02 08:48:58;;;;;;;3.17;2.42;;;24.60;73.90;;;;;;5031807;28;20709;-73
2022/06/02 08:52:01;;;;;;;1.80;1.80;;;24.60;74.30;;;;;;5024458;28;20772;-73
2022/06/02 08:54:58;;;;;;;1.63;1.63;;;24.80;74.70;;;;;;5021785;28;20193;-73
2022/06/02 08:57:27;;;;;;;3.92;2.03;;;24.90;74.70;;;;;;4988791;28;20192;-74
2022/06/02 09:00:19;;;;;;;2.38;2.20;;;25.00;74.50;;;;;;5015940;28;21224;-74
2022/06/02 09:03:23;;;;;;;7.95;2.47;;;25.10;74.00;;;;;;5015341;28;20198;-74
2022/06/02 09:06:07;;;;;;;2.20;1.60;;;25.20;71.70;;;;;;5014113;28;20768;-74
2022/06/02 09:08:56;;;;;;;3.28;2.28;;;25.30;71.40;;;;;;5017035;28;20192;-74
2022/06/02 09:12:01;;;;;;;2.28;1.90;;;25.40;71.80;;;;;;5019102;28;20216;-74
2022/06/02 09:14:33;;;;;;;2.55;1.88;;;25.50;72.70;;;;;;5019147;28;20194;-74
2022/06/02 09:17:07;;;;;;;1.42;1.42;;;25.60;69.70;;;;;;5016442;28;20664;-74
2022/06/02 09:19:38;;;;;;;1.80;1.70;;;25.70;69.30;;;;;;5015860;28;20221;-74
2022/06/02 09:22:10;;;;;;;1.65;1.65;;;25.80;70.50;;;;;;5013022;28;20215;-73
2022/06/02 09:24:57;;;;;;;1.95;1.23;;;25.90;71.10;;;;;;5013133;28;20807;-74
2022/06/02 09:27:48;;;;;;;1.77;1.40;;;26.00;69.10;;;;;;5012526;28;20786;-74
2022/06/02 09:30:16;;;;;;;1.95;1.30;;;26.20;66.30;;;;;;5010770;28;20250;-74
2022/06/02 09:32:58;;;;;;;1.40;1.40;;;26.20;67.80;;;;;;5016589;28;20184;-75
2022/06/02 09:35:27;;;;;;;1.73;1.63;;;26.40;68.00;;;;;;5072091;28;20265;-75
2022/06/02 09:38:21;;;;;;;1.02;1.02;;;26.50;67.70;;;;;;5068313;28;20239;-75
2022/06/02 09:40:50;;;;;;;1.08;1.08;;;26.70;66.80;;;;;;5070817;28;20714;-76
2022/06/02 09:43:25;;;;;;;1.85;1.20;;;26.80;65.60;;;;;;5070313;28;20182;-74
2022/06/02 09:46:03;;;;;;;1.73;1.52;;;26.90;67.10;;;;;;5069770;28;20205;-74
2022/06/02 09:48:32;;;;;;;2.28;1.15;;;27.00;64.10;;;;;;5087474;28;20679;-74
2022/06/02 09:51:11;;;;;;;2.53;1.48;;;27.10;62.90;;;;;;5070407;28;20706;-74
2022/06/02 09:53:43;;;;;;;4.25;1.13;;;27.30;61.10;;;;;;5066530;28;20665;-74
2022/06/02 09:56:12;;;;;;;1.42;1.27;;;27.30;62.40;;;;;;5066330;28;20225;-74
2022/06/02 09:58:58;;;;;;;4.25;1.00;;;27.40;63.80;;;;;;5049905;28;20598;-75
2022/06/02 10:01:38;;;;;;;1.00;1.00;;;27.50;61.20;;;;;;5067662;28;20648;-75
2022/06/02 10:04:45;;;;;;;1.27;1.17;;;27.70;61.20;;;;;;5067046;28;20301;-75
2022/06/02 10:07:28;;;;;;;2.78;0.90;;;27.80;58.70;;;;;;5068452;28;20179;-74
2022/06/02 10:10:03;;;;;;;2.67;0.93;;;28.00;58.10;;;;;;5067258;28;20187;-73
2022/06/02 10:12:56;;;;;;;3.80;0.95;;;28.30;59.40;;;;;;5069694;28;20659;-74
2022/06/02 10:15:56;;;;;;;0.80;0.55;;;28.50;55.70;;;;;;5025652;28;1171408;-74
2022/06/02 10:18:43;;;;;;;2.20;1.10;;;28.70;53.20;;;;;;5066660;28;20179;-74
2022/06/02 10:21:44;;;;;;;0.85;0.80;;;29.00;54.30;;;;;;5066129;28;20193;-74
2022/06/02 10:24:51;;;;;;;0.80;0.80;;;29.30;53.20;;;;;;5016536;28;20194;-74
2022/06/02 10:27:32;;;;;;;1.05;0.98;;;29.70;52.80;;;;;;4999574;28;20204;-74
2022/06/02 10:30:27;;;;;;;3.80;1.05;;;30.10;53.70;;;;;;5013877;28;20269;-73
2022/06/02 10:33:11;;;;;;;1.15;1.15;;;30.70;54.50;;;;;;5013326;28;20378;-74
2022/06/02 10:36:20;;;;;;;3.13;0.63;;;31.00;52.40;;;;;;5015152;28;20750;-74
2022/06/02 10:39:25;;;;;;;1.58;0.75;;;31.40;50.40;;;;;;5016222;28;20189;-73
2022/06/02 10:41:57;;;;;;;1.58;0.90;;;31.90;48.30;;;;;;5013734;28;20204;-73
2022/06/02 10:45:02;;;;;;;1.58;0.90;;;32.50;51.30;;;;;;5000042;28;20224;-74
2022/06/02 10:48:18;;;;;;;2.08;0.75;;;33.10;48.80;;;;;;4967316;28;20742;-74
2022/06/02 10:51:01;;;;;;;3.90;0.95;;;33.50;46.90;;;;;;4919039;29;20199;-74
2022/06/02 10:53:47;;;;;;;1.38;1.30;;;33.80;46.20;;;;;;4916616;29;20191;-74
2022/06/02 10:56:23;;;;;;;4.45;1.38;;;34.20;46.60;;;;;;4916929;29;20214;-74
2022/06/02 10:59:10;;;;;;;0.80;0.80;;;34.80;47.20;;;;;;4917800;29;20207;-74
2022/06/02 11:02:08;;;;;;;1.38;1.27;;;35.30;46.90;;;;;;4910358;29;20202;-74
2022/06/02 11:04:52;;;;;;;0.93;0.93;;;35.90;47.70;;;;;;4865827;29;20663;-74
2022/06/02 11:07:54;;;;;;;6.47;1.02;;;36.60;47.50;;;;;;4864602;29;20287;-74
2022/06/02 11:10:30;;;;;;;0.75;0.70;;;37.10;44.90;;;;;;4866506;29;20205;-73
2022/06/02 11:13:27;;;;;;;0.70;0.70;;;37.70;45.40;;;;;;4866138;29;20654;-73
2022/06/02 11:16:07;;;;;;;0.77;0.77;;;38.20;42.70;;;;;;4865567;29;20205;-73
2022/06/02 11:18:49;;;;;;;1.13;1.05;;;38.30;43.10;;;;;;4866595;29;20204;-73
2022/06/02 11:21:33;;;;;;;0.73;0.73;;;38.20;43.50;;;;;;4865704;29;20252;-74
2022/06/02 11:24:24;;;;;;;0.80;0.80;;;38.40;43.50;;;;;;4885097;29;20336;-75
2022/06/02 11:27:17;;;;;;;1.00;1.00;;;38.70;42.60;;;;;;4940590;28;20205;-73
2022/06/02 11:29:46;;;;;;;2.53;0.80;;;39.10;42.40;;;;;;4924358;29;20286;-73
2022/06/02 11:32:36;;;;;;;1.00;1.00;;;39.50;42.90;;;;;;4926846;29;20197;-73
2022/06/02 11:35:13;;;;;;;6.28;1.08;;;39.80;43.10;;;;;;4931008;29;20281;-73
2022/06/02 11:38:16;;;;;;;2.83;1.10;;;40.20;43.30;;;;;;4928189;29;20230;-73
2022/06/02 11:40:48;;;;;;;1.73;1.10;;;40.50;41.90;;;;;;4953215;28;20242;-73
2022/06/02 11:43:32;;;;;;;0.90;0.90;;;40.80;43.10;;;;;;5064462;28;20194;-73
2022/06/02 11:46:18;;;;;;;1.40;1.30;;;41.00;43.20;;;;;;5066515;28;20214;-74
2022/06/02 11:49:08;;;;;;;1.00;1.00;;;41.00;43.60;;;;;;5069571;28;20186;-74
2022/06/02 11:51:49;;;;;;;1.20;1.20;;;41.00;42.40;;;;;;5064956;28;20619;-73
2022/06/02 11:54:45;;;;;;;0.85;0.80;;;41.10;44.60;;;;;;5066646;28;20546;-72
2022/06/02 11:57:20;;;;;;;2.88;1.40;;;41.10;43.10;;;;;;5067274;28;20201;-73
2022/06/02 12:00:08;;;;;;;1.38;1.35;;;40.90;43.90;;;;;;5068015;28;20574;-73
2022/06/02 12:02:55;;;;;;;1.67;1.10;;;41.00;43.40;;;;;;5086274;28;20715;-73
2022/06/02 12:05:29;;;;;;;0.93;0.90;;;41.10;43.20;;;;;;5084652;28;20229;-73
2022/06/02 12:08:25;;;;;;;1.10;0.90;;;41.30;42.70;;;;;;5086980;28;20700;-73
2022/06/02 12:11:28;;;;;;;1.00;1.00;;;41.40;42.30;;;;;;5064816;28;20599;-73
2022/06/02 12:14:16;;;;;;;1.83;1.83;;;41.10;43.40;;;;;;5066284;28;20227;-73
2022/06/02 12:17:06;;;;;;;2.72;1.38;;;40.60;43.40;;;;;;5063098;28;20213;-73
2022/06/02 12:19:58;;;;;;;1.30;1.30;;;40.50;44.20;;;;;;5068178;28;20221;-73
2022/06/02 12:22:50;;;;;;;1.33;1.33;;;40.30;45.70;;;;;;5082802;28;20211;-73
2022/06/02 12:25:37;;;;;;;1.40;1.30;;;40.00;44.80;;;;;;5065474;28;20710;-73
2022/06/02 12:28:39;;;;;;;1.15;1.15;;;39.90;47.30;;;;;;5082102;28;20579;-73
2022/06/02 12:31:36;;;;;;;1.30;1.17;;;39.60;44.70;;;;;;5088068;28;20233;-73
2022/06/02 12:34:23;;;;;;;1.55;1.45;;;39.00;45.70;;;;;;5034440;28;20317;-73
2022/06/02 12:37:27;;;;;;;2.17;1.45;;;38.10;46.90;;;;;;5034146;28;20191;-74
2022/06/02 12:40:15;;;;;;;4.10;1.55;;;37.40;46.40;;;;;;5022390;28;20191;-73
2022/06/02 12:42:47;;;;;;;3.08;1.25;;;36.90;47.90;;;;;;5013597;28;20215;-73
2022/06/02 12:45:48;;;;;;;1.30;1.30;;;36.50;50.80;;;;;;5012414;28;20848;-73
2022/06/02 12:48:41;;;;;;;3.85;1.58;;;35.90;49.80;;;;;;5011947;28;20184;-73
2022/06/02 12:51:07;;;;;;;3.33;1.20;;;35.30;50.60;;;;;;5028308;28;20196;-73
2022/06/02 12:53:45;;;;;;;1.42;1.10;;;35.00;50.40;;;;;;5010976;28;20745;-73
2022/06/02 12:56:41;;;;;;;1.52;1.30;;;34.60;51.70;;;;;;5008910;28;20882;-73
2022/06/02 12:59:20;;;;;;;1.63;1.35;;;34.40;50.60;;;;;;5004177;28;20204;-73
2022/06/02 13:01:45;;;;;;;3.03;0.90;;;34.00;50.40;;;;;;5005133;28;20286;-74
2022/06/02 13:04:48;;;;;;;2.47;1.17;;;33.90;52.10;;;;;;5005824;28;20200;-74
2022/06/02 13:07:45;;;;;;;2.15;1.38;;;33.70;51.60;;;;;;5000142;28;20203;-74
2022/06/02 13:10:32;;;;;;;1.15;1.10;;;33.30;52.60;;;;;;5033102;28;20188;-73
2022/06/02 13:13:03;;;;;;;1.40;1.30;;;33.10;52.90;;;;;;5063772;28;20186;-73
2022/06/02 13:15:54;;;;;;;3.40;1.40;;;32.90;53.20;;;;;;5068925;28;20197;-73
2022/06/02 13:18:29;;;;;;;5.28;1.10;;;32.80;52.80;;;;;;5071506;28;20188;-73
2022/06/02 13:21:19;;;;;;;1.45;1.35;;;32.70;53.20;;;;;;5090068;28;20577;-74
2022/06/02 13:24:39;;;;;;;1.35;1.35;;;32.60;54.00;;;;;;5071287;28;20270;-74
2022/06/02 13:27:30;;;;;;;1.30;1.30;;;32.40;54.10;;;;;;5012112;28;20191;-74
2022/06/02 13:30:19;;;;;;;6.75;1.73;;;32.30;54.50;;;;;;5028344;28;20191;-75
2022/06/02 13:32:56;;;;;;;1.40;1.30;;;32.30;54.50;;;;;;4990498;28;20197;-75
2022/06/02 13:35:44;;;;;;;2.95;1.25;;;32.50;54.60;;;;;;4970472;28;20197;-75
2022/06/02 13:38:34;;;;;;;2.38;1.30;;;32.80;54.90;;;;;;4992179;28;20275;-75
2022/06/02 13:41:36;;;;;;;2.47;1.27;;;33.50;54.60;;;;;;4984404;28;20197;-75
2022/06/02 13:44:33;;;;;;;3.92;1.40;;;34.30;53.80;;;;;;4987103;28;20311;-74
2022/06/02 13:47:30;;;;;;;2.95;1.30;;;35.20;51.90;;;;;;4921347;29;20322;-75
2022/06/02 13:50:29;;;;;;;1.55;1.35;;;36.00;50.40;;;;;;4909211;29;20191;-72
2022/06/02 13:53:31;;;;;;;1.13;1.13;;;36.90;50.70;;;;;;4920052;29;20203;-73
2022/06/02 13:59:24;;;;;;;1.60;1.17;;;38.30;50.20;;;;;;4913064;29;20210;-75
2022/06/02 14:01:55;;;;;;;1.25;1.20;;;38.50;49.00;;;;;;4944831;28;20205;-73
2022/06/02 14:04:43;;;;;;;3.65;1.58;;;38.30;49.10;;;;;;4929506;28;20193;-73
2022/06/02 14:07:27;;;;;;;3.35;1.25;;;38.10;49.90;;;;;;4956678;28;21088;-75
2022/06/02 14:10:09;;;;;;;5.82;1.65;;;38.20;49.10;;;;;;4965422;28;20199;-75
2022/06/02 14:13:03;;;;;;;1.45;1.35;;;38.10;49.00;;;;;;4993464;28;20184;-74
2022/06/02 14:15:40;;;;;;;1.13;1.13;;;38.20;48.70;;;;;;4992472;28;20239;-74
2022/06/02 14:18:19;;;;;;;3.95;1.40;;;38.40;48.90;;;;;;4988314;28;20192;-74
2022/06/02 14:21:04;;;;;;;1.38;1.27;;;38.70;48.20;;;;;;4988658;28;20255;-74
2022/06/02 14:24:01;;;;;;;1.25;1.25;;;38.90;48.10;;;;;;5035186;28;20679;-74
2022/06/02 14:26:35;;;;;;;1.65;1.55;;;38.90;47.50;;;;;;5072830;28;20309;-74
2022/06/02 14:29:31;;;;;;;1.52;1.08;;;38.90;48.60;;;;;;5063786;28;20181;-74
2022/06/02 14:32:19;;;;;;;1.10;1.10;;;38.80;49.80;;;;;;5066708;28;20209;-74